Time;durP1;ratioP1;P1;durP2;ratioP2;P2;SDS_P1;SDS_P2;PMS_P1;PMS_P2;Temp;Humidity;BMP_temperature;BMP_pressure;BME280_temperature;BME280_humidity;BME280_pressure;Samples;Min_cycle;Max_cycle;Signal;HPM_P1;HPM_P2
2021/12/02 00:01:42;;;;;;;0.10;0.10;;;;;;;;;;5032059;28;20045;-88
2021/12/02 00:04:08;;;;;;;0.10;0.10;;;;;;;;;;5015693;28;20128;-88
2021/12/02 00:06:36;;;;;;;0.10;0.10;;;;;;;;;;5015702;28;20037;-88
2021/12/02 00:09:02;;;;;;;0.10;0.10;;;;;;;;;;5016208;28;20411;-88
2021/12/02 00:11:30;;;;;;;0.10;0.10;;;;;;;;;;5015632;28;20041;-89
2021/12/02 00:13:59;;;;;;;0.10;0.10;;;;;;;;;;5032224;28;20049;-89
2021/12/02 00:22:07;;;;;;;0.10;0.10;;;;;;;;;;5018636;28;20346;-88
2021/12/02 00:24:35;;;;;;;0.00;0.00;;;;;;;;;;4998958;28;20136;-89
2021/12/02 00:27:01;;;;;;;0.00;0.00;;;;;;;;;;5015289;28;20195;-89
2021/12/02 00:29:27;;;;;;;0.10;0.10;;;;;;;;;;5015205;28;20099;-88
2021/12/02 00:31:53;;;;;;;0.00;0.00;;;;;;;;;;5015196;28;20342;-87
2021/12/02 00:34:20;;;;;;;0.00;0.00;;;;;;;;;;5015308;28;20041;-88
2021/12/02 00:36:46;;;;;;;0.00;0.00;;;;;;;;;;4998771;28;20457;-87
2021/12/02 00:39:16;;;;;;;0.10;0.10;;;;;;;;;;5032683;28;20053;-87
2021/12/02 00:41:42;;;;;;;0.00;0.00;;;;;;;;;;5031408;28;20040;-88
2021/12/02 00:44:08;;;;;;;0.25;0.25;;;;;;;;;;5014970;28;20045;-88
2021/12/02 00:46:34;;;;;;;0.10;0.10;;;;;;;;;;5031187;28;20041;-88
2021/12/02 00:49:04;;;;;;;0.10;0.10;;;;;;;;;;5014926;28;20120;-88
2021/12/02 00:51:34;;;;;;;0.10;0.10;;;;;;;;;;5031237;28;20038;-87
2021/12/02 00:54:00;;;;;;;0.10;0.10;;;;;;;;;;5014731;28;20382;-87
2021/12/02 00:56:26;;;;;;;0.00;0.00;;;;;;;;;;5014810;28;20106;-88
2021/12/02 00:58:54;;;;;;;0.10;0.10;;;;;;;;;;5014749;28;20045;-88
2021/12/02 01:01:21;;;;;;;0.10;0.10;;;;;;;;;;4998554;28;20037;-88
2021/12/02 01:03:51;;;;;;;0.10;0.10;;;;;;;;;;4998379;28;20120;-88
2021/12/02 01:06:17;;;;;;;0.10;0.10;;;;;;;;;;5014590;28;20116;-88
2021/12/02 01:08:43;;;;;;;0.10;0.10;;;;;;;;;;4998111;28;20073;-88
2021/12/02 01:11:09;;;;;;;0.10;0.10;;;;;;;;;;4998182;28;20076;-88
2021/12/02 01:13:35;;;;;;;0.00;0.00;;;;;;;;;;4998204;28;20040;-88
2021/12/02 01:16:01;;;;;;;0.08;0.08;;;;;;;;;;5029959;28;20056;-88
2021/12/02 01:18:27;;;;;;;0.10;0.10;;;;;;;;;;4997981;28;20128;-88
2021/12/02 01:20:53;;;;;;;0.10;0.10;;;;;;;;;;5030745;28;20576;-88
2021/12/02 01:23:22;;;;;;;0.10;0.10;;;;;;;;;;4998248;28;20124;-88
2021/12/02 01:25:50;;;;;;;0.10;0.10;;;;;;;;;;5014324;28;20079;-88
2021/12/02 01:28:16;;;;;;;0.00;0.00;;;;;;;;;;5014752;28;20476;-88
2021/12/02 01:30:42;;;;;;;0.10;0.10;;;;;;;;;;5014247;28;20430;-88
2021/12/02 01:33:08;;;;;;;0.10;0.10;;;;;;;;;;5030707;28;20056;-88
2021/12/02 01:35:35;;;;;;;0.10;0.10;;;;;;;;;;4997839;28;20518;-88
2021/12/02 01:38:01;;;;;;;0.10;0.10;;;;;;;;;;5013965;28;20263;-88
2021/12/02 01:40:27;;;;;;;0.10;0.10;;;;;;;;;;5030621;28;20125;-88
2021/12/02 01:42:54;;;;;;;0.10;0.10;;;;;;;;;;5014351;28;20037;-88
2021/12/02 01:45:26;;;;;;;0.10;0.10;;;;;;;;;;5014175;28;20444;-88
2021/12/02 01:47:53;;;;;;;0.10;0.10;;;;;;;;;;5014273;28;20041;-87
2021/12/02 01:50:21;;;;;;;0.10;0.10;;;;;;;;;;5014459;28;20139;-88
2021/12/02 01:52:48;;;;;;;0.00;0.00;;;;;;;;;;4998192;28;20046;-87
2021/12/02 01:55:15;;;;;;;0.00;0.00;;;;;;;;;;4997702;28;20047;-87
2021/12/02 01:57:41;;;;;;;0.10;0.10;;;;;;;;;;5013823;28;20500;-87
2021/12/02 02:00:15;;;;;;;0.10;0.10;;;;;;;;;;5013959;28;20037;-88
2021/12/02 02:02:41;;;;;;;0.10;0.10;;;;;;;;;;5013890;28;20042;-88
2021/12/02 02:05:12;;;;;;;0.10;0.10;;;;;;;;;;4997839;28;20381;-87
2021/12/02 02:07:41;;;;;;;0.10;0.10;;;;;;;;;;5014158;28;20042;-87
2021/12/02 02:10:10;;;;;;;0.00;0.00;;;;;;;;;;5013937;28;20033;-88
2021/12/02 02:12:37;;;;;;;0.10;0.10;;;;;;;;;;5013851;28;20497;-87
2021/12/02 02:15:03;;;;;;;0.10;0.10;;;;;;;;;;4997535;28;20350;-87
2021/12/02 02:17:35;;;;;;;0.00;0.00;;;;;;;;;;5033667;28;20045;-87
2021/12/02 02:20:02;;;;;;;0.10;0.10;;;;;;;;;;5017748;28;20519;-88
2021/12/02 02:22:30;;;;;;;0.00;0.00;;;;;;;;;;5017494;28;20051;-88
2021/12/02 02:24:56;;;;;;;0.00;0.00;;;;;;;;;;5033659;28;20049;-88
2021/12/02 02:27:22;;;;;;;0.10;0.10;;;;;;;;;;5001342;28;20550;-88
2021/12/02 02:29:48;;;;;;;0.10;0.10;;;;;;;;;;5037439;28;20049;-88
2021/12/02 02:32:14;;;;;;;0.10;0.10;;;;;;;;;;5004427;28;20473;-88
2021/12/02 02:34:40;;;;;;;0.10;0.10;;;;;;;;;;5020833;28;20036;-88
2021/12/02 02:37:07;;;;;;;0.00;0.00;;;;;;;;;;5020517;28;20041;-88
2021/12/02 02:39:35;;;;;;;0.00;0.00;;;;;;;;;;5004509;28;20049;-88
2021/12/02 02:42:01;;;;;;;0.10;0.10;;;;;;;;;;5004413;28;20041;-87
2021/12/02 02:44:28;;;;;;;0.00;0.00;;;;;;;;;;5004289;28;20075;-88
2021/12/02 02:46:54;;;;;;;0.10;0.10;;;;;;;;;;5020564;28;20033;-88
2021/12/02 02:49:20;;;;;;;0.00;0.00;;;;;;;;;;5020571;28;20223;-88
2021/12/02 02:51:46;;;;;;;0.10;0.10;;;;;;;;;;5020429;28;20106;-88
2021/12/02 02:54:14;;;;;;;0.20;0.20;;;;;;;;;;5020200;28;20480;-88
2021/12/02 02:56:49;;;;;;;0.00;0.00;;;;;;;;;;5020127;28;20048;-88
2021/12/02 02:59:34;;;;;;;0.10;0.10;;;;;;;;;;5004844;28;20052;-88
2021/12/02 03:07:26;;;;;;;0.00;0.00;;;;;;;;;;5020424;28;20527;-88
2021/12/02 03:12:25;;;;;;;0.00;0.00;;;;;;;;;;5019886;28;20045;-88
2021/12/02 03:16:37;;;;;;;0.00;0.00;;;;;;;;;;5021005;28;20064;-88
2021/12/02 03:17:37;;;;;;;0.00;0.00;;;;;;;;;;5022201;28;20049;-88
2021/12/02 03:20:04;;;;;;;0.08;0.08;;;;;;;;;;5036397;28;20049;-88
2021/12/02 03:22:30;;;;;;;0.03;0.03;;;;;;;;;;5020064;28;20040;-88
2021/12/02 03:24:56;;;;;;;0.10;0.10;;;;;;;;;;5019748;28;20040;-88
2021/12/02 03:27:22;;;;;;;0.10;0.10;;;;;;;;;;5003192;28;20396;-88
2021/12/02 03:29:47;;;;;;;0.10;0.10;;;;;;;;;;5003336;28;20130;-89
2021/12/02 03:32:13;;;;;;;0.05;0.05;;;;;;;;;;5019546;28;20090;-89
2021/12/02 03:34:40;;;;;;;0.00;0.00;;;;;;;;;;5036084;28;20052;-88
2021/12/02 03:37:05;;;;;;;0.00;0.00;;;;;;;;;;5003182;28;20076;-88
2021/12/02 03:39:31;;;;;;;0.00;0.00;;;;;;;;;;5018945;28;20130;-87
2021/12/02 03:41:58;;;;;;;0.00;0.00;;;;;;;;;;5035986;28;20502;-87
2021/12/02 03:44:24;;;;;;;0.10;0.10;;;;;;;;;;5003332;28;20373;-85
2021/12/02 03:46:50;;;;;;;0.00;0.00;;;;;;;;;;5035544;28;20040;-85
2021/12/02 03:49:16;;;;;;;0.00;0.00;;;;;;;;;;5019523;28;20039;-85
2021/12/02 03:51:42;;;;;;;0.10;0.10;;;;;;;;;;5035847;28;20045;-84
2021/12/02 03:54:08;;;;;;;0.00;0.00;;;;;;;;;;5053793;28;20045;-84
2021/12/02 03:56:34;;;;;;;0.05;0.05;;;;;;;;;;5002917;28;20048;-85
2021/12/02 03:59:00;;;;;;;0.10;0.10;;;;;;;;;;5035644;28;20425;-85
2021/12/02 04:01:26;;;;;;;0.00;0.00;;;;;;;;;;5019140;28;20040;-85
2021/12/02 04:03:52;;;;;;;0.03;0.03;;;;;;;;;;5003194;28;20036;-85
2021/12/02 04:06:19;;;;;;;0.10;0.10;;;;;;;;;;5019087;28;20120;-85
2021/12/02 04:08:54;;;;;;;0.10;0.10;;;;;;;;;;5035372;28;20441;-84
2021/12/02 04:11:35;;;;;;;0.00;0.00;;;;;;;;;;5018794;28;20044;-85
2021/12/02 04:16:37;;;;;;;0.10;0.10;;;;;;;;;;5019772;28;20128;-84
2021/12/02 04:19:03;;;;;;;0.00;0.00;;;;;;;;;;5002775;28;20102;-84
2021/12/02 04:21:29;;;;;;;0.10;0.10;;;;;;;;;;5018775;28;20037;-84
2021/12/02 04:23:55;;;;;;;0.10;0.10;;;;;;;;;;5018841;28;20148;-85
2021/12/02 04:26:21;;;;;;;0.10;0.10;;;;;;;;;;5018735;28;20040;-85
2021/12/02 04:28:47;;;;;;;0.10;0.10;;;;;;;;;;5018877;28;20043;-85
2021/12/02 04:31:13;;;;;;;0.10;0.10;;;;;;;;;;5018789;28;20060;-85
2021/12/02 04:33:39;;;;;;;0.10;0.10;;;;;;;;;;5018477;28;20381;-84
2021/12/02 04:36:08;;;;;;;0.10;0.10;;;;;;;;;;5002489;28;20103;-85
2021/12/02 04:38:34;;;;;;;0.10;0.10;;;;;;;;;;5002105;28;20098;-85
2021/12/02 04:41:00;;;;;;;0.10;0.10;;;;;;;;;;5018524;28;20040;-85
2021/12/02 04:43:26;;;;;;;0.10;0.10;;;;;;;;;;5018230;28;20439;-85
2021/12/02 04:45:52;;;;;;;0.10;0.10;;;;;;;;;;5034509;28;20043;-85
2021/12/02 04:48:18;;;;;;;0.10;0.10;;;;;;;;;;5018410;28;20036;-85
2021/12/02 04:50:44;;;;;;;0.10;0.10;;;;;;;;;;5018405;28;20045;-84
2021/12/02 04:53:11;;;;;;;0.10;0.10;;;;;;;;;;5001948;28;20150;-84
2021/12/02 04:55:37;;;;;;;0.10;0.10;;;;;;;;;;5034817;28;20496;-85
2021/12/02 04:58:03;;;;;;;0.10;0.10;;;;;;;;;;5018269;28;20060;-84
2021/12/02 05:00:29;;;;;;;0.00;0.00;;;;;;;;;;5018070;28;20056;-84
2021/12/02 05:02:55;;;;;;;0.00;0.00;;;;;;;;;;5018104;28;20063;-88
2021/12/02 05:05:22;;;;;;;0.03;0.03;;;;;;;;;;5002230;28;20040;-85
2021/12/02 05:07:49;;;;;;;0.00;0.00;;;;;;;;;;5018185;28;20492;-86
2021/12/02 05:10:15;;;;;;;0.00;0.00;;;;;;;;;;5001726;28;20128;-85
2021/12/02 05:12:41;;;;;;;0.00;0.00;;;;;;;;;;5017897;28;20052;-86
2021/12/02 05:15:07;;;;;;;0.10;0.10;;;;;;;;;;5034173;28;20036;-86
2021/12/02 05:17:33;;;;;;;0.10;0.10;;;;;;;;;;5017887;28;20443;-86
2021/12/02 05:19:59;;;;;;;0.10;0.10;;;;;;;;;;5017732;28;20040;-86
2021/12/02 05:22:27;;;;;;;0.10;0.10;;;;;;;;;;5001724;28;20052;-86
2021/12/02 05:24:52;;;;;;;0.00;0.00;;;;;;;;;;5017732;28;20463;-86
2021/12/02 05:27:19;;;;;;;0.10;0.10;;;;;;;;;;5017925;28;20041;-86
2021/12/02 05:29:45;;;;;;;0.00;0.00;;;;;;;;;;5033925;28;20091;-86
2021/12/02 05:32:11;;;;;;;0.10;0.10;;;;;;;;;;5017734;28;20045;-86
2021/12/02 05:34:37;;;;;;;0.00;0.00;;;;;;;;;;5017827;28;20076;-87
2021/12/02 05:37:03;;;;;;;0.10;0.10;;;;;;;;;;5033833;28;20334;-86
2021/12/02 05:39:29;;;;;;;0.08;0.08;;;;;;;;;;5017486;28;20044;-87
2021/12/02 05:41:55;;;;;;;0.10;0.10;;;;;;;;;;5001302;28;20037;-86
2021/12/02 05:44:21;;;;;;;0.10;0.10;;;;;;;;;;5001282;28;20055;-86
2021/12/02 05:46:47;;;;;;;0.00;0.00;;;;;;;;;;5017386;28;20045;-87
2021/12/02 05:49:13;;;;;;;0.10;0.10;;;;;;;;;;5017428;28;20087;-87
2021/12/02 05:51:42;;;;;;;0.00;0.00;;;;;;;;;;5017627;28;20076;-87
2021/12/02 05:54:09;;;;;;;0.10;0.10;;;;;;;;;;5017953;28;20040;-87
2021/12/02 05:56:40;;;;;;;0.00;0.00;;;;;;;;;;5033752;28;20041;-94
2021/12/02 05:59:07;;;;;;;0.10;0.10;;;;;;;;;;5001673;28;20102;-87
2021/12/02 06:01:33;;;;;;;0.10;0.10;;;;;;;;;;5033641;28;20044;-86
2021/12/02 06:03:59;;;;;;;0.10;0.10;;;;;;;;;;5020805;28;20041;-86
2021/12/02 06:06:27;;;;;;;0.10;0.10;;;;;;;;;;5021017;28;20029;-86
2021/12/02 06:08:53;;;;;;;0.00;0.00;;;;;;;;;;5037739;28;20041;-84
2021/12/02 06:11:19;;;;;;;0.10;0.10;;;;;;;;;;5021213;28;20503;-86
2021/12/02 06:13:46;;;;;;;0.00;0.00;;;;;;;;;;5038122;28;20072;-85
2021/12/02 06:16:12;;;;;;;0.10;0.10;;;;;;;;;;5001679;28;20067;-85
2021/12/02 06:18:38;;;;;;;0.10;0.10;;;;;;;;;;5034388;28;20095;-85
2021/12/02 06:21:04;;;;;;;0.00;0.00;;;;;;;;;;5001396;28;20037;-85
2021/12/02 06:23:30;;;;;;;0.10;0.10;;;;;;;;;;5018217;28;20034;-85
2021/12/02 06:25:56;;;;;;;0.10;0.10;;;;;;;;;;5017790;28;20041;-85
2021/12/02 06:28:22;;;;;;;0.10;0.10;;;;;;;;;;5001580;28;20523;-85
2021/12/02 06:30:48;;;;;;;0.10;0.10;;;;;;;;;;5001382;28;20041;-85
2021/12/02 06:33:14;;;;;;;0.10;0.10;;;;;;;;;;5017776;28;20425;-83
2021/12/02 06:35:40;;;;;;;0.10;0.10;;;;;;;;;;5017873;28;20045;-84
2021/12/02 06:38:08;;;;;;;0.10;0.10;;;;;;;;;;5017401;28;20041;-84
2021/12/02 06:40:35;;;;;;;0.10;0.10;;;;;;;;;;5017831;28;20064;-85
2021/12/02 06:43:01;;;;;;;0.10;0.10;;;;;;;;;;5017685;28;20092;-84
2021/12/02 06:45:27;;;;;;;0.10;0.10;;;;;;;;;;5017823;28;20110;-84
2021/12/02 06:47:58;;;;;;;0.00;0.00;;;;;;;;;;5017286;28;20529;-84
2021/12/02 06:50:24;;;;;;;0.10;0.10;;;;;;;;;;5018117;28;20085;-85
2021/12/02 06:52:50;;;;;;;0.03;0.03;;;;;;;;;;5000941;28;20073;-85
2021/12/02 06:55:16;;;;;;;0.10;0.10;;;;;;;;;;5017323;28;20042;-84
2021/12/02 06:57:42;;;;;;;0.00;0.00;;;;;;;;;;5000896;28;20127;-85
2021/12/02 07:00:09;;;;;;;0.10;0.10;;;;;;;;;;5016976;28;20049;-84
2021/12/02 07:02:36;;;;;;;0.10;0.10;;;;;;;;;;5016947;28;20124;-84
2021/12/02 07:05:02;;;;;;;0.10;0.10;;;;;;;;;;5016963;28;20095;-85
2021/12/02 07:07:32;;;;;;;0.00;0.00;;;;;;;;;;5016881;28;20041;-84
2021/12/02 07:09:59;;;;;;;0.10;0.10;;;;;;;;;;5017706;28;20042;-85
2021/12/02 07:12:32;;;;;;;0.10;0.10;;;;;;;;;;5033371;28;20116;-84
2021/12/02 07:15:07;;;;;;;0.08;0.08;;;;;;;;;;5015319;28;20045;-84
2021/12/02 07:17:33;;;;;;;0.10;0.10;;;;;;;;;;5016479;28;20104;-85
2021/12/02 07:20:00;;;;;;;0.10;0.10;;;;;;;;;;5016794;28;20049;-86
2021/12/02 07:22:26;;;;;;;0.10;0.10;;;;;;;;;;5000477;28;20468;-85
2021/12/02 07:24:52;;;;;;;0.10;0.10;;;;;;;;;;5016495;28;20067;-85
2021/12/02 07:27:18;;;;;;;0.10;0.10;;;;;;;;;;5000211;28;20041;-85
2021/12/02 07:29:44;;;;;;;0.10;0.10;;;;;;;;;;5016457;28;20045;-85
2021/12/02 07:32:10;;;;;;;0.10;0.10;;;;;;;;;;5000181;28;20044;-85
2021/12/02 07:34:37;;;;;;;0.10;0.10;;;;;;;;;;5016361;28;20041;-85
2021/12/02 07:37:03;;;;;;;0.10;0.10;;;;;;;;;;5000150;28;20060;-86
2021/12/02 07:39:29;;;;;;;0.10;0.10;;;;;;;;;;5032409;28;20060;-86
2021/12/02 07:41:55;;;;;;;0.00;0.00;;;;;;;;;;5016300;28;20508;-85
2021/12/02 07:44:22;;;;;;;0.10;0.10;;;;;;;;;;5016137;28;20048;-84
2021/12/02 07:46:48;;;;;;;0.10;0.10;;;;;;;;;;5016187;28;20041;-87
2021/12/02 07:49:14;;;;;;;0.10;0.10;;;;;;;;;;5016246;28;20136;-87
2021/12/02 07:51:41;;;;;;;0.10;0.10;;;;;;;;;;5016098;28;20479;-87
2021/12/02 07:54:07;;;;;;;0.10;0.10;;;;;;;;;;5032512;28;20558;-85
2021/12/02 07:56:33;;;;;;;0.10;0.10;;;;;;;;;;5016119;28;20045;-86
2021/12/02 07:58:59;;;;;;;0.10;0.10;;;;;;;;;;5015765;28;20041;-86
2021/12/02 08:01:25;;;;;;;0.10;0.10;;;;;;;;;;5015944;28;20041;-86
2021/12/02 08:03:51;;;;;;;0.00;0.00;;;;;;;;;;5032083;28;20033;-86
2021/12/02 08:06:17;;;;;;;0.10;0.10;;;;;;;;;;4999778;28;20034;-86
2021/12/02 08:08:45;;;;;;;0.10;0.10;;;;;;;;;;5015806;28;20060;-87
2021/12/02 08:11:11;;;;;;;0.00;0.00;;;;;;;;;;4999375;28;20045;-84
2021/12/02 08:13:37;;;;;;;0.03;0.03;;;;;;;;;;5015806;28;20183;-87
2021/12/02 08:16:04;;;;;;;0.05;0.05;;;;;;;;;;4999120;28;20064;-85
2021/12/02 08:18:30;;;;;;;0.10;0.10;;;;;;;;;;5015479;28;20041;-86
2021/12/02 08:20:56;;;;;;;0.00;0.00;;;;;;;;;;4999145;28;20039;-86
2021/12/02 08:23:22;;;;;;;0.00;0.00;;;;;;;;;;5015471;28;20041;-85
2021/12/02 08:25:48;;;;;;;0.00;0.00;;;;;;;;;;5031635;28;20436;-86
2021/12/02 08:28:15;;;;;;;0.10;0.10;;;;;;;;;;4999117;28;20045;-85
2021/12/02 08:30:41;;;;;;;0.00;0.00;;;;;;;;;;5031703;28;20042;-83
2021/12/02 08:33:08;;;;;;;0.10;0.10;;;;;;;;;;5031746;28;20045;-87
2021/12/02 08:35:34;;;;;;;0.00;0.00;;;;;;;;;;4999153;28;20073;-86
2021/12/02 08:38:02;;;;;;;0.10;0.10;;;;;;;;;;5015169;28;20091;-86
2021/12/02 08:40:31;;;;;;;0.00;0.00;;;;;;;;;;4998830;28;20037;-86
2021/12/02 08:42:59;;;;;;;0.00;0.00;;;;;;;;;;4999032;28;20080;-86
2021/12/02 08:45:25;;;;;;;0.10;0.10;;;;;;;;;;5015163;28;20128;-87
2021/12/02 08:47:53;;;;;;;0.00;0.00;;;;;;;;;;5015021;28;20569;-88
2021/12/02 08:50:19;;;;;;;0.10;0.10;;;;;;;;;;5015180;28;20037;-88
2021/12/02 08:52:45;;;;;;;0.10;0.10;;;;;;;;;;5031311;28;20033;-87
2021/12/02 08:55:12;;;;;;;0.10;0.10;;;;;;;;;;5014864;28;20041;-87
2021/12/02 08:57:38;;;;;;;0.10;0.10;;;;;;;;;;5014948;28;20037;-89
2021/12/02 09:00:05;;;;;;;0.10;0.10;;;;;;;;;;4999550;28;20041;-86
2021/12/02 09:02:31;;;;;;;0.10;0.10;;;;;;;;;;5014785;28;20045;-85
2021/12/02 09:04:57;;;;;;;0.10;0.10;;;;;;;;;;5031345;28;20053;-88
2021/12/02 09:07:23;;;;;;;0.10;0.10;;;;;;;;;;5014958;28;20045;-87
2021/12/02 09:09:49;;;;;;;0.10;0.10;;;;;;;;;;5014983;28;20095;-87
2021/12/02 09:12:15;;;;;;;0.10;0.10;;;;;;;;;;4998474;28;20045;-87
2021/12/02 09:14:41;;;;;;;0.10;0.10;;;;;;;;;;4998622;28;20124;-87
2021/12/02 09:17:07;;;;;;;0.10;0.10;;;;;;;;;;5014382;28;20093;-87
2021/12/02 09:19:33;;;;;;;0.10;0.10;;;;;;;;;;4996670;28;20489;-85
2021/12/02 09:21:59;;;;;;;0.00;0.00;;;;;;;;;;5030721;28;20041;-84
2021/12/02 09:24:25;;;;;;;0.10;0.10;;;;;;;;;;4998455;28;20029;-87
2021/12/02 09:26:51;;;;;;;0.00;0.00;;;;;;;;;;5030896;28;20079;-87
2021/12/02 09:29:18;;;;;;;0.10;0.10;;;;;;;;;;5014740;28;20081;-86
2021/12/02 09:31:44;;;;;;;0.00;0.00;;;;;;;;;;5030512;28;20142;-84
2021/12/02 09:34:10;;;;;;;0.00;0.00;;;;;;;;;;4997970;28;20037;-89
2021/12/02 09:36:36;;;;;;;0.10;0.10;;;;;;;;;;4997284;28;20168;-91
2021/12/02 09:39:03;;;;;;;0.00;0.00;;;;;;;;;;4997501;28;20132;-88
2021/12/02 09:41:29;;;;;;;0.00;0.00;;;;;;;;;;4997903;28;20426;-86
2021/12/02 09:43:55;;;;;;;0.10;0.10;;;;;;;;;;5030556;28;20088;-85
2021/12/02 09:46:21;;;;;;;0.05;0.05;;;;;;;;;;5014323;28;20037;-86
2021/12/02 09:48:47;;;;;;;0.00;0.00;;;;;;;;;;5014187;28;20060;-87
2021/12/02 09:51:19;;;;;;;0.10;0.10;;;;;;;;;;5014067;28;20053;-87
2021/12/02 09:53:57;;;;;;;0.30;0.30;;;;;;;;;;5015330;28;20110;-86
2021/12/02 09:56:27;;;;;;;0.00;0.00;;;;;;;;;;4999493;28;20563;-86
2021/12/02 09:58:56;;;;;;;0.10;0.10;;;;;;;;;;4998226;28;20050;-86
2021/12/02 10:02:06;;;;;;;0.00;0.00;;;;;;;;;;4998004;28;20501;-86
2021/12/02 10:04:12;;;;;;;0.00;0.00;;;;;;;;;;5011603;28;20485;-86
2021/12/02 10:06:41;;;;;;;0.10;0.10;;;;;;;;;;4997492;28;20038;-86
2021/12/02 10:09:13;;;;;;;0.00;0.00;;;;;;;;;;4998204;28;20048;-85
2021/12/02 10:11:47;;;;;;;0.10;0.10;;;;;;;;;;5014481;28;20051;-86
2021/12/02 10:14:19;;;;;;;0.00;0.00;;;;;;;;;;4998414;28;20117;-87
2021/12/02 10:16:45;;;;;;;0.10;0.10;;;;;;;;;;5013714;28;20381;-85
2021/12/02 10:19:23;;;;;;;0.10;0.10;;;;;;;;;;5013952;28;20049;-86
2021/12/02 10:21:54;;;;;;;0.00;0.00;;;;;;;;;;4999000;28;20095;-86
2021/12/02 10:24:23;;;;;;;0.00;0.00;;;;;;;;;;5014465;28;20073;-87
2021/12/02 10:26:51;;;;;;;0.00;0.00;;;;;;;;;;4997592;28;20038;-86
2021/12/02 10:29:18;;;;;;;0.10;0.10;;;;;;;;;;5030117;28;20091;-86
2021/12/02 10:31:47;;;;;;;0.00;0.00;;;;;;;;;;5012133;28;20528;-85
2021/12/02 10:34:13;;;;;;;0.00;0.00;;;;;;;;;;5013930;28;20053;-85
2021/12/02 10:36:40;;;;;;;0.00;0.00;;;;;;;;;;5013521;28;20041;-84
2021/12/02 10:39:09;;;;;;;0.10;0.10;;;;;;;;;;5013339;28;20048;-85
2021/12/02 10:41:35;;;;;;;0.08;0.08;;;;;;;;;;5029596;28;20048;-84
2021/12/02 10:44:01;;;;;;;0.00;0.00;;;;;;;;;;5029771;28;20053;-85
2021/12/02 10:46:27;;;;;;;0.00;0.00;;;;;;;;;;5029621;28;20426;-83
2021/12/02 10:48:53;;;;;;;0.05;0.05;;;;;;;;;;5031732;28;20045;-83
2021/12/02 10:51:39;;;;;;;0.10;0.10;;;;;;;;;;5016916;28;20124;-83
2021/12/02 10:54:08;;;;;;;0.00;0.00;;;;;;;;;;5033465;28;20041;-83
2021/12/02 10:56:34;;;;;;;0.10;0.10;;;;;;;;;;5016832;28;20046;-83
2021/12/02 10:59:19;;;;;;;0.10;0.10;;;;;;;;;;5017067;28;20073;-83
2021/12/02 11:01:45;;;;;;;0.10;0.10;;;;;;;;;;5034657;28;20038;-84
2021/12/02 11:04:13;;;;;;;0.10;0.10;;;;;;;;;;5033391;28;20038;-84
2021/12/02 11:06:45;;;;;;;0.00;0.00;;;;;;;;;;5033609;28;20127;-84
2021/12/02 11:09:24;;;;;;;0.10;0.10;;;;;;;;;;5033079;28;20041;-85
2021/12/02 11:12:08;;;;;;;0.10;0.10;;;;;;;;;;5016715;28;20392;-86
2021/12/02 11:14:34;;;;;;;0.00;0.00;;;;;;;;;;5022433;28;20554;-84
2021/12/02 11:17:07;;;;;;;0.00;0.00;;;;;;;;;;5017642;28;20061;-86
2021/12/02 11:19:34;;;;;;;0.00;0.00;;;;;;;;;;5016767;28;20617;-85
2021/12/02 11:22:07;;;;;;;0.00;0.00;;;;;;;;;;5016543;28;20041;-85
2021/12/02 11:24:33;;;;;;;0.00;0.00;;;;;;;;;;5016405;28;20069;-85
2021/12/02 11:27:10;;;;;;;0.10;0.10;;;;;;;;;;5016588;28;20421;-85
2021/12/02 11:29:46;;;;;;;0.10;0.10;;;;;;;;;;5016230;28;20505;-85
2021/12/02 11:32:22;;;;;;;0.00;0.00;;;;;;;;;;5016178;28;20037;-85
2021/12/02 11:34:48;;;;;;;0.00;0.00;;;;;;;;;;5016491;28;20049;-85
2021/12/02 11:37:14;;;;;;;0.10;0.10;;;;;;;;;;5016182;28;20546;-85
2021/12/02 11:39:41;;;;;;;0.10;0.10;;;;;;;;;;5033907;28;20549;-85
2021/12/02 11:42:07;;;;;;;0.10;0.10;;;;;;;;;;5016452;28;20063;-84
2021/12/02 11:44:33;;;;;;;0.00;0.00;;;;;;;;;;5032731;28;20116;-85
2021/12/02 11:46:59;;;;;;;0.10;0.10;;;;;;;;;;5016020;28;20042;-85
2021/12/02 11:49:25;;;;;;;0.00;0.00;;;;;;;;;;5016129;28;20515;-84
2021/12/02 11:51:51;;;;;;;0.00;0.00;;;;;;;;;;5016295;28;20217;-84
2021/12/02 11:54:17;;;;;;;0.00;0.00;;;;;;;;;;5015847;28;20041;-84
2021/12/02 11:56:43;;;;;;;0.00;0.00;;;;;;;;;;5016175;28;20038;-86
2021/12/02 11:59:09;;;;;;;0.03;0.03;;;;;;;;;;5015924;28;20088;-86
2021/12/02 12:01:35;;;;;;;0.00;0.00;;;;;;;;;;5031822;28;20038;-85
2021/12/02 12:04:02;;;;;;;0.73;0.52;;;;;;;;;;5032053;28;20033;-84
2021/12/02 12:06:30;;;;;;;0.05;0.05;;;;;;;;;;5015856;28;20472;-85
2021/12/02 12:08:59;;;;;;;0.00;0.00;;;;;;;;;;5015907;28;20229;-86
2021/12/02 12:11:25;;;;;;;0.03;0.03;;;;;;;;;;5015990;28;20073;-85
2021/12/02 12:13:55;;;;;;;0.10;0.10;;;;;;;;;;5032013;28;20092;-85
2021/12/02 12:16:23;;;;;;;0.00;0.00;;;;;;;;;;5015546;28;20057;-86
2021/12/02 12:18:49;;;;;;;0.10;0.10;;;;;;;;;;5015625;28;20046;-85
2021/12/02 12:21:15;;;;;;;0.00;0.00;;;;;;;;;;5015382;28;20060;-85
2021/12/02 12:23:45;;;;;;;0.10;0.10;;;;;;;;;;5015705;28;20337;-85
2021/12/02 12:26:12;;;;;;;0.10;0.10;;;;;;;;;;5015287;28;20393;-85
2021/12/02 12:29:12;;;;;;;0.10;0.10;;;;;;;;;;5015178;28;20041;-86
2021/12/02 12:31:51;;;;;;;0.00;0.00;;;;;;;;;;4993927;28;20409;-86
2021/12/02 12:34:36;;;;;;;0.00;0.00;;;;;;;;;;5014838;28;20041;-86
2021/12/02 12:37:03;;;;;;;0.00;0.00;;;;;;;;;;5015052;28;20052;-86
2021/12/02 12:39:33;;;;;;;0.00;0.00;;;;;;;;;;5031756;28;20048;-86
2021/12/02 12:42:17;;;;;;;0.00;0.00;;;;;;;;;;5015650;28;20041;-86
2021/12/02 12:44:50;;;;;;;0.00;0.00;;;;;;;;;;5031439;28;20131;-86
2021/12/02 12:47:17;;;;;;;0.10;0.10;;;;;;;;;;5014843;28;20430;-88
2021/12/02 12:49:43;;;;;;;0.15;0.15;;;;;;;;;;5015672;28;20045;-86
2021/12/02 12:52:15;;;;;;;0.10;0.10;;;;;;;;;;5015299;28;20049;-85
2021/12/02 12:54:41;;;;;;;0.00;0.00;;;;;;;;;;5013618;28;20041;-84
2021/12/02 12:57:08;;;;;;;0.00;0.00;;;;;;;;;;5016315;28;20095;-85
2021/12/02 12:59:50;;;;;;;0.00;0.00;;;;;;;;;;5035358;28;20092;-85
2021/12/02 13:02:16;;;;;;;0.10;0.10;;;;;;;;;;5014850;28;20124;-84
2021/12/02 13:04:52;;;;;;;0.10;0.10;;;;;;;;;;5014792;28;20037;-84
2021/12/02 13:07:19;;;;;;;0.00;0.00;;;;;;;;;;5015021;28;20076;-84
2021/12/02 13:10:09;;;;;;;0.05;0.05;;;;;;;;;;5014912;28;20053;-84
2021/12/02 13:12:37;;;;;;;0.10;0.10;;;;;;;;;;5029616;28;20156;-84
2021/12/02 13:15:03;;;;;;;0.00;0.00;;;;;;;;;;5031519;28;20516;-85
2021/12/02 13:17:36;;;;;;;0.10;0.10;;;;;;;;;;5014268;28;20049;-83
2021/12/02 13:20:07;;;;;;;0.10;0.10;;;;;;;;;;5030957;28;20045;-84
2021/12/02 13:22:33;;;;;;;0.00;0.00;;;;;;;;;;5031032;28;20037;-84
2021/12/02 13:24:59;;;;;;;0.10;0.10;;;;;;;;;;5014588;28;20052;-85
2021/12/02 13:27:25;;;;;;;0.00;0.00;;;;;;;;;;5014537;28;20287;-84
2021/12/02 13:29:53;;;;;;;0.10;0.10;;;;;;;;;;5014424;28;20056;-84
2021/12/02 13:32:19;;;;;;;0.10;0.10;;;;;;;;;;5030889;28;20057;-83
2021/12/02 13:34:45;;;;;;;0.10;0.10;;;;;;;;;;5030679;28;20044;-85
2021/12/02 13:37:13;;;;;;;0.00;0.00;;;;;;;;;;5014225;28;20378;-84
2021/12/02 13:39:42;;;;;;;0.10;0.10;;;;;;;;;;5014037;28;20095;-85
2021/12/02 13:42:12;;;;;;;0.10;0.10;;;;;;;;;;5014070;28;20080;-85
2021/12/02 13:44:47;;;;;;;0.00;0.00;;;;;;;;;;5030444;28;20044;-85
2021/12/02 13:47:16;;;;;;;0.10;0.10;;;;;;;;;;5014308;28;20041;-86
2021/12/02 13:49:46;;;;;;;0.10;0.10;;;;;;;;;;5014783;28;20037;-87
2021/12/02 13:55:04;;;;;;;0.00;0.00;;;;;;;;;;5016483;28;20045;-87
2021/12/02 13:57:32;;;;;;;;;;;;;;;;;;5017402;28;20052;-87
2021/12/02 14:00:04;;;;;;;0.10;0.10;;;;;;;;;;5015941;28;19917;-86
2021/12/02 14:02:30;;;;;;;0.10;0.10;;;;;;;;;;5015929;28;20048;-87
2021/12/02 14:04:56;;;;;;;0.10;0.10;;;;;;;;;;5016614;28;20041;-86
2021/12/02 14:07:23;;;;;;;0.10;0.10;;;;;;;;;;5014168;28;20482;-86
2021/12/02 14:09:53;;;;;;;0.00;0.00;;;;;;;;;;5014490;28;20458;-86
2021/12/02 14:12:21;;;;;;;0.10;0.10;;;;;;;;;;5013357;28;20080;-86
2021/12/02 14:15:20;;;;;;;0.10;0.10;;;;;;;;;;5013644;28;20408;-86
2021/12/02 14:17:48;;;;;;;0.10;0.10;;;;;;;;;;4971133;28;20053;-89
2021/12/02 14:20:14;;;;;;;0.00;0.00;;;;;;;;;;5013651;28;20048;-89
2021/12/02 14:22:41;;;;;;;0.00;0.00;;;;;;;;;;5013594;28;20552;-90
2021/12/02 14:25:07;;;;;;;0.10;0.10;;;;;;;;;;5016997;28;20034;-86
2021/12/02 14:27:33;;;;;;;0.00;0.00;;;;;;;;;;5016891;28;20596;-85
2021/12/02 14:30:08;;;;;;;0.10;0.10;;;;;;;;;;5033866;28;20045;-86
2021/12/02 14:32:34;;;;;;;0.00;0.00;;;;;;;;;;5017284;28;20067;-87
2021/12/02 14:35:06;;;;;;;0.10;0.10;;;;;;;;;;5017122;28;20482;-87
2021/12/02 14:37:32;;;;;;;0.10;0.10;;;;;;;;;;5017126;28;20148;-87
2021/12/02 14:39:58;;;;;;;0.10;0.10;;;;;;;;;;5033250;28;20481;-87
2021/12/02 14:42:24;;;;;;;0.10;0.10;;;;;;;;;;5017165;28;20103;-87
2021/12/02 14:44:50;;;;;;;0.10;0.10;;;;;;;;;;5016922;28;20453;-87
2021/12/02 14:47:16;;;;;;;0.10;0.10;;;;;;;;;;5016606;28;20076;-90
2021/12/02 14:49:44;;;;;;;0.10;0.10;;;;;;;;;;5016534;28;20049;-86
2021/12/02 14:52:12;;;;;;;0.10;0.10;;;;;;;;;;5017251;28;20045;-88
2021/12/02 14:54:45;;;;;;;0.10;0.10;;;;;;;;;;5016764;28;20076;-88
2021/12/02 14:57:14;;;;;;;0.10;0.10;;;;;;;;;;5016969;28;20037;-88
2021/12/02 15:00:02;;;;;;;0.10;0.10;;;;;;;;;;5033010;28;20045;-88
2021/12/02 15:02:30;;;;;;;0.00;0.00;;;;;;;;;;5016800;28;20098;-87
2021/12/02 15:04:59;;;;;;;0.10;0.10;;;;;;;;;;5017326;28;20048;-89
2021/12/02 15:07:25;;;;;;;0.10;0.10;;;;;;;;;;5016991;28;20381;-88